Time;durP1;ratioP1;P1;durP2;ratioP2;P2;SDS_P1;SDS_P2;PMS_P1;PMS_P2;Temp;Humidity;BMP_temperature;BMP_pressure;BME280_temperature;BME280_humidity;BME280_pressure;Samples;Min_cycle;Max_cycle;Signal;HPM_P1;HPM_P2
2022/04/27 00:00:22;0.00;0.00;0.62;0.00;0.00;0.62;1.30;0.80;;;26.90;23.00;;;;;;2248556;61;20384;-61
2022/04/27 00:03:07;0.00;0.00;0.62;0.00;0.00;0.62;1.50;0.90;;;26.80;22.90;;;;;;2248893;61;20407;-63
2022/04/27 00:05:52;0.00;0.00;0.62;0.00;0.00;0.62;1.20;0.70;;;26.90;23.00;;;;;;2248982;61;20640;-63
2022/04/27 00:08:37;0.00;0.00;0.62;0.00;0.00;0.62;1.90;1.07;;;26.90;23.00;;;;;;2248269;61;20363;-62
2022/04/27 00:11:22;0.00;0.00;0.62;0.00;0.00;0.62;1.33;0.77;;;26.80;23.00;;;;;;2248702;61;20391;-64
2022/04/27 00:14:06;0.00;0.00;0.62;0.00;0.00;0.62;1.30;0.70;;;26.80;23.00;;;;;;2249028;61;20374;-66
2022/04/27 00:16:52;0.00;0.00;0.62;0.00;0.00;0.62;1.30;0.83;;;26.80;23.00;;;;;;2573504;45;20363;-64
2022/04/27 00:19:37;0.00;0.00;0.62;0.00;0.00;0.62;1.30;0.80;;;26.80;23.00;;;;;;2249072;61;20414;-62
2022/04/27 00:22:22;0.00;0.00;0.62;0.00;0.00;0.62;2.40;1.13;;;26.80;23.00;;;;;;2249064;61;20862;-62
2022/04/27 00:25:08;0.00;0.00;0.62;0.00;0.00;0.62;1.20;0.70;;;26.80;22.90;;;;;;2247101;61;20371;-61
2022/04/27 00:27:52;0.00;0.00;0.62;0.00;0.00;0.62;1.50;0.80;;;26.80;22.90;;;;;;2248549;61;20516;-65
2022/04/27 00:30:37;0.00;0.00;0.62;0.00;0.00;0.62;1.50;0.80;;;26.80;23.00;;;;;;2247441;61;20419;-63
2022/04/27 00:33:23;0.00;0.00;0.62;0.00;0.00;0.62;1.40;0.80;;;26.80;23.50;;;;;;2248854;61;20815;-64
2022/04/27 00:36:07;0.00;0.00;0.62;0.00;0.00;0.62;2.23;1.07;;;26.80;23.00;;;;;;2248469;61;20383;-62
2022/04/27 00:38:52;0.00;0.00;0.62;0.00;0.00;0.62;1.40;0.80;;;26.80;23.00;;;;;;2247067;61;20414;-63
2022/04/27 00:41:36;0.00;0.00;0.62;0.00;0.00;0.62;1.70;0.83;;;26.80;23.00;;;;;;2247937;61;20807;-62
2022/04/27 00:44:21;0.00;0.00;0.62;0.00;0.00;0.62;1.50;0.80;;;26.80;23.00;;;;;;2248818;61;20388;-63
2022/04/27 00:47:06;0.00;0.00;0.62;0.00;0.00;0.62;1.40;0.80;;;26.80;22.90;;;;;;2247673;61;20527;-63
2022/04/27 00:49:53;0.00;0.00;0.62;0.00;0.00;0.62;1.40;0.80;;;26.80;23.00;;;;;;2248530;61;20524;-57
2022/04/27 00:52:38;0.00;0.00;0.62;0.00;0.00;0.62;2.10;1.10;;;26.80;23.00;;;;;;2246671;61;20563;-58
2022/04/27 00:55:23;0.00;0.00;0.62;0.00;0.00;0.62;1.30;0.90;;;26.80;22.90;;;;;;2248370;61;20422;-59
2022/04/27 00:58:12;0.00;0.00;0.62;0.00;0.00;0.62;2.23;1.20;;;26.80;22.70;;;;;;2248179;61;20422;-62
2022/04/27 01:00:57;0.00;0.00;0.62;0.00;0.00;0.62;1.90;1.40;;;26.80;22.50;;;;;;2246471;61;20474;-61
2022/04/27 01:03:42;0.00;0.00;0.62;0.00;0.00;0.62;1.50;1.20;;;26.80;22.50;;;;;;2248545;61;20376;-60
2022/04/27 01:06:29;0.00;0.00;0.62;0.00;0.00;0.62;2.40;1.57;;;26.80;22.30;;;;;;2248359;61;20423;-59
2022/04/27 01:09:14;0.00;0.00;0.62;0.00;0.00;0.62;2.40;1.57;;;26.80;22.30;;;;;;2249835;61;20407;-61
2022/04/27 01:12:01;0.00;0.00;0.62;0.00;0.00;0.62;2.00;1.30;;;26.80;22.20;;;;;;2250203;61;20435;-61
2022/04/27 01:14:50;0.00;0.00;0.62;0.00;0.00;0.62;2.70;1.77;;;26.80;22.20;;;;;;2247906;61;20421;-61
2022/04/27 01:17:35;0.00;0.00;0.62;0.00;0.00;0.62;2.27;1.30;;;26.70;22.10;;;;;;2252333;61;20425;-61
2022/04/27 01:20:19;0.00;0.00;0.62;0.00;0.00;0.62;2.40;1.70;;;26.70;22.00;;;;;;2252035;61;20460;-61
2022/04/27 01:23:06;0.00;0.00;0.62;0.00;0.00;0.62;2.30;1.57;;;26.70;22.00;;;;;;2250755;61;20363;-59
2022/04/27 01:25:54;0.00;0.00;0.62;0.00;0.00;0.62;5.63;1.67;;;26.70;22.00;;;;;;2254723;61;20409;-62
2022/04/27 01:28:39;0.00;0.00;0.62;0.00;0.00;0.62;2.67;1.67;;;26.60;22.00;;;;;;2252292;61;20362;-63
2022/04/27 01:31:23;0.00;0.00;0.62;0.00;0.00;0.62;3.40;2.00;;;26.60;21.90;;;;;;2253133;61;20386;-63
2022/04/27 01:34:08;0.00;0.00;0.62;0.00;0.00;0.62;2.70;1.60;;;26.60;21.90;;;;;;2251786;61;20455;-61
2022/04/27 01:36:54;0.00;0.00;0.62;0.00;0.00;0.62;2.27;1.70;;;26.60;21.90;;;;;;2251413;61;20959;-62
2022/04/27 01:39:40;0.00;0.00;0.62;0.00;0.00;0.62;2.60;1.70;;;26.60;21.90;;;;;;2251828;61;20359;-61
2022/04/27 01:42:25;0.00;0.00;0.62;0.00;0.00;0.62;2.23;1.50;;;26.60;21.90;;;;;;2252009;61;20429;-62
2022/04/27 01:45:10;0.00;0.00;0.62;0.00;0.00;0.62;2.00;1.70;;;26.60;21.90;;;;;;2251211;61;20418;-64
2022/04/27 01:47:55;0.00;0.00;0.62;0.00;0.00;0.62;3.10;2.07;;;26.50;21.80;;;;;;2252014;61;20402;-62
2022/04/27 01:50:39;0.00;0.00;0.62;0.00;0.00;0.62;3.00;1.70;;;26.50;21.80;;;;;;2251632;61;20795;-60
2022/04/27 01:56:31;0.00;0.00;0.62;0.00;0.00;0.62;1.97;1.50;;;26.40;21.70;;;;;;2251785;61;20362;-59
2022/04/27 01:59:17;0.00;0.00;0.62;0.00;0.00;0.62;2.10;1.90;;;26.40;21.70;;;;;;2251044;61;20421;-61
2022/04/27 02:02:03;0.00;0.00;0.62;0.00;0.00;0.62;2.50;1.63;;;26.40;21.70;;;;;;2251882;61;20922;-60
2022/04/27 02:04:47;0.00;0.00;0.62;0.00;0.00;0.62;2.70;1.77;;;26.30;21.70;;;;;;2254516;61;20375;-63
2022/04/27 02:07:37;0.00;0.00;0.62;0.00;0.00;0.62;2.10;1.70;;;26.30;21.70;;;;;;2250498;61;20394;-61
2022/04/27 02:10:22;0.00;0.00;0.62;0.00;0.00;0.62;2.77;1.70;;;26.30;21.70;;;;;;2254208;61;20958;-61
2022/04/27 02:13:10;0.00;0.00;0.62;0.00;0.00;0.62;3.90;1.60;;;26.30;21.60;;;;;;2251540;61;20382;-61
2022/04/27 02:15:55;0.00;0.00;0.62;0.00;0.00;0.62;5.83;1.83;;;26.20;21.60;;;;;;2250712;61;20371;-61
2022/04/27 02:18:48;0.00;0.00;0.62;0.00;0.00;0.62;2.70;1.90;;;26.20;21.60;;;;;;2254414;61;20887;-63
2022/04/27 02:21:33;0.00;0.00;0.62;0.00;0.00;0.62;2.27;2.07;;;26.20;21.60;;;;;;2250530;61;20934;-62
2022/04/27 02:24:18;0.00;0.00;0.62;0.00;0.00;0.62;2.23;1.63;;;26.10;21.60;;;;;;2254458;61;20382;-62
2022/04/27 02:27:03;0.00;0.00;0.62;0.00;0.00;0.62;3.00;1.90;;;26.10;21.60;;;;;;2252479;61;21138;-62
2022/04/27 02:29:50;0.00;0.00;0.62;0.00;0.00;0.62;2.20;2.00;;;26.10;21.60;;;;;;2250609;61;20374;-63
2022/04/27 02:32:42;0.00;0.00;0.62;0.00;0.00;0.62;2.10;1.60;;;26.10;21.60;;;;;;2254057;61;20391;-60
2022/04/27 02:35:27;0.00;0.00;0.62;0.00;0.00;0.62;2.60;2.00;;;26.00;21.50;;;;;;2252148;61;20691;-61
2022/04/27 02:38:12;0.00;0.00;0.62;0.00;0.00;0.62;3.87;2.17;;;26.00;21.50;;;;;;2250767;61;20382;-61
2022/04/27 02:40:57;0.00;0.00;0.62;0.00;0.00;0.62;4.47;1.90;;;26.00;21.50;;;;;;2251743;61;20484;-63
2022/04/27 02:43:42;0.00;0.00;0.62;0.00;0.00;0.62;1.97;1.67;;;26.00;21.60;;;;;;2250806;61;20907;-63
2022/04/27 02:46:33;0.00;0.00;0.62;0.00;0.00;0.62;2.10;1.80;;;25.90;21.50;;;;;;2254237;61;20453;-60
2022/04/27 02:52:22;0.00;0.00;0.62;0.00;0.00;0.62;2.57;2.27;;;25.80;21.50;;;;;;2249860;61;20382;-61
2022/04/27 02:55:24;0.00;0.00;0.62;0.00;0.00;0.62;3.10;1.90;;;25.80;21.50;;;;;;2251714;61;20370;-58
2022/04/27 02:58:08;0.00;0.00;0.62;0.00;0.00;0.62;3.60;2.50;;;25.80;21.50;;;;;;2251500;61;20502;-62
2022/04/27 03:00:54;0.00;0.00;0.62;0.00;0.00;0.62;2.33;1.93;;;25.70;21.40;;;;;;2250907;61;20434;-59
2022/04/27 03:03:40;0.00;0.00;0.62;0.00;0.00;0.62;2.47;2.10;;;25.70;21.50;;;;;;2254594;61;20374;-58
2022/04/27 03:06:25;0.00;0.00;0.62;0.00;0.00;0.62;2.40;1.70;;;25.70;21.50;;;;;;2250284;61;20459;-61
2022/04/27 03:09:11;0.00;0.00;0.62;0.00;0.00;0.62;4.10;2.40;;;25.70;21.50;;;;;;2251622;61;20792;-58
2022/04/27 03:11:56;0.00;0.00;0.62;0.00;0.00;0.62;2.50;2.30;;;25.60;21.50;;;;;;2251177;61;20792;-65
2022/04/27 03:14:55;0.00;0.00;0.62;0.00;0.00;0.62;3.90;2.30;;;25.60;21.50;;;;;;2249422;61;20872;-62
2022/04/27 03:17:39;0.00;0.00;0.62;0.00;0.00;0.62;2.20;1.97;;;25.60;21.50;;;;;;2254409;61;20363;-57
2022/04/27 03:20:27;0.00;0.00;0.62;0.00;0.00;0.62;2.67;1.90;;;25.60;21.50;;;;;;2250636;61;20398;-62
2022/04/27 03:23:11;0.00;0.00;0.62;0.00;0.00;0.62;3.67;2.60;;;25.50;21.50;;;;;;2251526;61;20429;-60
2022/04/27 03:25:56;0.00;0.00;0.62;0.00;0.00;0.62;2.67;2.03;;;25.50;21.50;;;;;;2252147;61;20410;-60
2022/04/27 03:28:40;0.00;0.00;0.62;0.00;0.00;0.62;3.13;2.20;;;25.40;21.50;;;;;;2250817;61;20585;-58
2022/04/27 03:31:25;0.00;0.00;0.62;0.00;0.00;0.62;3.43;2.30;;;25.40;21.50;;;;;;2251012;61;21174;-59
2022/04/27 03:34:10;0.00;0.00;0.62;0.00;0.00;0.62;2.67;2.10;;;25.40;21.50;;;;;;2251585;61;20800;-60
2022/04/27 03:36:57;0.00;0.00;0.62;0.00;0.00;0.62;3.40;2.40;;;25.40;21.50;;;;;;2253153;61;20890;-60
2022/04/27 03:39:42;0.00;0.00;0.62;0.00;0.00;0.62;3.00;1.97;;;25.40;21.60;;;;;;2251692;61;20463;-60
2022/04/27 03:42:29;0.00;0.00;0.62;0.00;0.00;0.62;2.80;2.40;;;25.30;21.50;;;;;;2250999;61;20418;-62
2022/04/27 03:45:19;0.00;0.00;0.62;0.00;0.00;0.62;2.30;2.00;;;25.30;21.50;;;;;;2251276;61;20371;-62
2022/04/27 03:48:05;0.00;0.00;0.62;0.00;0.00;0.62;2.67;2.20;;;25.20;21.50;;;;;;2251497;61;20434;-62
2022/04/27 03:50:50;0.00;0.00;0.62;0.00;0.00;0.62;3.73;2.40;;;25.20;21.50;;;;;;2250087;61;21014;-59
2022/04/27 03:53:37;0.00;0.00;0.62;0.00;0.00;0.62;2.60;2.10;;;25.20;21.50;;;;;;2251396;61;20451;-60
2022/04/27 03:56:22;0.00;0.00;0.62;0.00;0.00;0.62;3.20;2.60;;;25.20;21.60;;;;;;2251607;61;20816;-58
2022/04/27 03:59:07;0.00;0.00;0.62;0.00;0.00;0.62;2.40;2.20;;;25.20;21.60;;;;;;2253142;61;20371;-61
2022/04/27 04:01:52;0.00;0.00;0.62;0.00;0.00;0.62;2.90;2.60;;;25.10;21.50;;;;;;2251435;61;20398;-57
2022/04/27 04:04:37;0.00;0.00;0.62;0.00;0.00;0.62;3.63;2.70;;;25.10;21.50;;;;;;2252523;61;20366;-61
2022/04/27 04:07:21;0.00;0.00;0.62;0.00;0.00;0.62;2.70;2.30;;;25.10;21.50;;;;;;2254612;61;20395;-59
2022/04/27 04:10:13;0.00;0.00;0.62;0.00;0.00;0.62;3.23;2.00;;;25.00;21.50;;;;;;2252220;61;20398;-63
2022/04/27 04:13:02;0.00;0.00;0.62;0.00;0.00;0.62;2.97;2.37;;;25.10;21.60;;;;;;2250838;61;20371;-61
2022/04/27 04:15:50;0.00;0.00;0.62;0.00;0.00;0.62;3.67;1.93;;;25.00;21.60;;;;;;2248521;61;20816;-62
2022/04/27 04:18:55;0.00;0.00;0.62;0.00;0.00;0.62;4.10;2.23;;;25.00;21.60;;;;;;2251040;61;20375;-62
2022/04/27 04:21:56;0.00;0.00;0.62;0.00;0.00;0.62;3.07;2.10;;;25.00;21.60;;;;;;2249669;61;20418;-62
2022/04/27 04:31:11;0.00;0.00;0.62;0.00;0.00;0.62;3.30;2.50;;;24.90;21.60;;;;;;2247694;61;20442;-61
2022/04/27 04:34:01;0.00;0.00;0.62;0.00;0.00;0.62;4.50;2.10;;;24.80;21.50;;;;;;2248751;61;20479;-61
2022/04/27 04:36:47;0.00;0.00;0.62;0.00;0.00;0.62;3.10;2.70;;;24.80;21.60;;;;;;2247708;61;20367;-58
2022/04/27 04:39:34;0.00;0.00;0.62;0.00;0.00;0.62;2.43;2.23;;;24.80;21.60;;;;;;2248234;61;20374;-61
2022/04/27 04:42:19;0.00;0.00;0.62;0.00;0.00;0.62;2.57;1.97;;;24.70;21.50;;;;;;2249205;61;20488;-63
2022/04/27 04:45:07;0.00;0.00;0.62;0.00;0.00;0.62;2.60;1.80;;;24.80;21.60;;;;;;2248140;61;20784;-61
2022/04/27 04:48:11;0.00;0.00;0.62;0.00;0.00;0.62;3.50;2.40;;;24.70;21.60;;;;;;2248730;61;20923;-60
2022/04/27 04:51:19;0.00;0.00;0.62;0.00;0.00;0.62;2.47;1.97;;;24.70;21.60;;;;;;2246736;61;20383;-54
2022/04/27 04:54:18;0.00;0.00;0.62;0.00;0.00;0.62;2.90;2.20;;;24.70;21.60;;;;;;2248551;61;20399;-60
2022/04/27 04:57:29;0.00;0.00;0.62;0.00;0.00;0.62;4.17;2.43;;;24.70;21.60;;;;;;2245559;61;20522;-59
2022/04/27 05:00:40;0.00;0.00;0.62;0.00;0.00;0.62;3.00;2.37;;;24.60;21.60;;;;;;2247680;61;20370;-58
2022/04/27 05:03:48;0.00;0.00;0.62;0.00;0.00;0.62;2.80;1.90;;;24.60;21.60;;;;;;2248482;61;20475;-57
2022/04/27 05:07:05;0.00;0.00;0.62;0.00;0.00;0.62;3.10;2.20;;;24.60;21.70;;;;;;2247858;61;20475;-60
2022/04/27 05:10:04;0.00;0.00;0.62;0.00;0.00;0.62;3.73;2.17;;;24.60;21.70;;;;;;2248072;61;20388;-58
2022/04/27 05:13:18;0.00;0.00;0.62;0.00;0.00;0.62;2.90;2.40;;;24.50;21.70;;;;;;2243111;61;20431;-61
2022/04/27 05:16:12;0.00;0.00;0.62;0.00;0.00;0.62;4.13;2.30;;;24.50;21.70;;;;;;2247521;61;20845;-58
2022/04/27 05:19:11;0.00;0.00;0.62;0.00;0.00;0.62;2.53;2.13;;;24.50;21.70;;;;;;2247252;61;20896;-55
2022/04/27 05:22:33;0.00;0.00;0.62;0.00;0.00;0.62;3.07;2.20;;;24.40;21.70;;;;;;2246496;61;20855;-59
2022/04/27 05:25:34;0.00;0.00;0.62;0.00;0.00;0.62;2.90;2.60;;;24.50;21.80;;;;;;2248142;61;20828;-56
2022/04/27 05:32:04;0.00;0.00;0.62;0.00;0.00;0.62;3.20;2.53;;;24.40;21.80;;;;;;2247805;61;20482;-61
2022/04/27 05:34:57;0.00;0.00;0.62;0.00;0.00;0.62;3.37;2.30;;;24.40;21.80;;;;;;2249647;61;20371;-62
2022/04/27 05:37:54;0.00;0.00;0.62;0.00;0.00;0.62;3.20;2.50;;;24.30;21.80;;;;;;2248179;61;20360;-62
2022/04/27 05:40:57;0.00;0.00;0.62;0.00;0.00;0.62;3.40;2.07;;;24.30;21.80;;;;;;2247813;61;20857;-66
2022/04/27 05:44:12;0.00;0.00;0.62;0.00;0.00;0.62;2.37;2.17;;;24.30;21.80;;;;;;2248234;61;20430;-56
2022/04/27 05:47:25;0.00;0.00;0.62;0.00;0.00;0.62;2.23;1.90;;;24.30;21.80;;;;;;2250659;61;20446;-58
2022/04/27 05:50:35;0.00;0.00;0.62;0.00;0.00;0.62;2.70;2.20;;;24.30;21.80;;;;;;2249233;61;20427;-62
2022/04/27 05:53:29;0.00;0.00;0.62;0.00;0.00;0.62;2.83;2.00;;;24.20;21.70;;;;;;2250673;61;20375;-58
2022/04/27 05:56:33;0.00;0.00;0.62;0.00;0.00;0.62;3.57;2.43;;;24.20;21.70;;;;;;2246328;61;20434;-63
2022/04/27 05:59:30;0.00;0.00;0.62;0.00;0.00;0.62;4.57;2.40;;;24.20;21.70;;;;;;2247598;61;20799;-62
2022/04/27 06:02:28;0.00;0.00;0.62;0.00;0.00;0.62;3.10;2.20;;;24.20;21.70;;;;;;2247478;61;20430;-62
2022/04/27 06:05:13;0.00;0.00;0.62;0.00;0.00;0.62;2.57;1.80;;;24.20;21.70;;;;;;2246747;61;20372;-63
2022/04/27 06:07:59;0.00;0.00;0.62;0.00;0.00;0.62;2.97;2.50;;;24.20;21.70;;;;;;2247722;61;20450;-62
2022/04/27 06:10:43;0.00;0.00;0.62;0.00;0.00;0.62;2.17;1.80;;;24.20;21.70;;;;;;2246714;61;20858;-64
2022/04/27 06:13:27;0.00;0.00;0.62;0.00;0.00;0.62;3.20;2.30;;;24.20;21.70;;;;;;2247789;61;20371;-62
2022/04/27 06:16:34;0.00;0.00;0.62;0.00;0.00;0.62;2.47;2.07;;;24.20;21.70;;;;;;2248291;61;20371;-63
2022/04/27 06:19:25;0.00;0.00;0.62;0.00;0.00;0.62;2.20;1.80;;;24.20;21.70;;;;;;2246892;61;20368;-62
2022/04/27 06:22:12;0.00;0.00;0.62;0.00;0.00;0.62;4.77;2.53;;;24.20;22.20;;;;;;2250323;61;20388;-61
2022/04/27 06:24:58;0.00;0.00;0.62;0.00;0.00;0.62;2.50;2.00;;;24.10;21.60;;;;;;2250603;61;20387;-62
2022/04/27 06:28:09;0.00;0.00;0.62;0.00;0.00;0.62;2.50;1.87;;;24.10;21.60;;;;;;2247871;61;20384;-62
2022/04/27 06:30:54;0.00;0.00;0.62;0.00;0.00;0.62;3.73;2.80;;;24.10;21.60;;;;;;2247500;61;20430;-61
2022/04/27 06:33:41;0.00;0.00;0.62;0.00;0.00;0.62;3.30;2.10;;;24.10;21.60;;;;;;2246668;61;20364;-59
2022/04/27 06:36:27;0.00;0.00;0.62;0.00;0.00;0.62;7.37;2.40;;;24.10;21.60;;;;;;2248097;61;20418;-61
2022/04/27 06:39:15;0.00;0.00;0.62;0.00;0.00;0.62;2.20;1.93;;;24.10;21.60;;;;;;2247913;61;20468;-61
2022/04/27 06:42:00;0.00;0.00;0.62;0.00;0.00;0.62;3.17;2.13;;;24.10;21.70;;;;;;2246906;61;20383;-63
2022/04/27 06:44:51;0.00;0.00;0.62;0.00;0.00;0.62;4.40;2.90;;;24.10;21.80;;;;;;2248335;61;20511;-59
2022/04/27 06:47:54;0.00;0.00;0.62;0.00;0.00;0.62;3.17;2.67;;;24.10;21.80;;;;;;2247620;61;20395;-68
2022/04/27 06:50:58;0.00;0.00;0.62;0.00;0.00;0.62;4.37;3.07;;;24.10;21.90;;;;;;2247974;61;20804;-67
2022/04/27 06:54:03;0.00;0.00;0.62;0.00;0.00;0.62;3.83;3.00;;;24.10;22.00;;;;;;2248594;61;20367;-68
2022/04/27 06:57:07;0.00;0.00;0.62;0.00;0.00;0.62;6.40;3.20;;;24.10;22.00;;;;;;2248169;61;20407;-68
2022/04/27 07:00:12;0.00;0.00;0.62;0.00;0.00;0.62;3.57;3.27;;;24.10;22.10;;;;;;2247618;61;20904;-69
2022/04/27 07:02:58;0.00;0.00;0.62;0.00;0.00;0.62;3.40;2.60;;;24.10;22.20;;;;;;2246510;61;20375;-53
2022/04/27 07:05:43;0.00;0.00;0.62;0.00;0.00;0.62;3.63;3.20;;;24.10;22.20;;;;;;2247744;61;20410;-66
2022/04/27 07:08:28;0.00;0.00;0.62;0.00;0.00;0.62;4.67;3.17;;;24.10;22.20;;;;;;2246918;61;20499;-67
2022/04/27 07:11:14;0.00;0.00;0.62;0.00;0.00;0.62;3.90;2.73;;;24.10;22.20;;;;;;2250688;61;20950;-68
2022/04/27 07:13:58;0.00;0.00;0.62;0.00;0.00;0.62;3.83;3.43;;;24.10;22.20;;;;;;2251622;61;20399;-64
2022/04/27 07:16:43;0.00;0.00;0.62;0.00;0.00;0.62;3.87;3.37;;;24.10;22.30;;;;;;2251792;61;20441;-73
2022/04/27 07:19:28;0.00;0.00;0.62;0.00;0.00;0.62;3.23;2.93;;;24.10;22.30;;;;;;2251254;61;20445;-66
2022/04/27 07:22:12;0.00;0.00;0.62;0.00;0.00;0.62;3.90;2.77;;;24.10;22.30;;;;;;2251318;61;20387;-65
2022/04/27 07:24:57;0.00;0.00;0.62;0.00;0.00;0.62;4.53;3.37;;;24.10;22.30;;;;;;2251036;61;20366;-66
2022/04/27 07:27:43;0.00;0.00;0.62;0.00;0.00;0.62;4.80;3.73;;;24.10;22.30;;;;;;2251729;61;20390;-64
2022/04/27 07:30:28;0.00;0.00;0.62;0.00;0.00;0.62;3.83;3.47;;;24.20;22.40;;;;;;2248063;61;20502;-64
2022/04/27 07:33:13;0.00;0.00;0.62;0.00;0.00;0.62;3.50;3.00;;;24.10;22.30;;;;;;2246768;61;20356;-68
2022/04/27 07:35:57;0.00;0.00;0.62;0.00;0.00;0.62;3.70;3.30;;;24.20;22.40;;;;;;2247926;61;20363;-63
2022/04/27 07:38:44;0.00;0.00;0.62;0.00;0.00;0.62;4.70;3.53;;;24.20;22.40;;;;;;2247831;61;21016;-65
2022/04/27 07:41:29;0.00;0.00;0.62;0.00;0.00;0.62;4.60;3.40;;;24.20;22.40;;;;;;2246533;61;20390;-66
2022/04/27 07:44:17;0.00;0.00;0.62;0.00;0.00;0.62;3.00;2.73;;;24.20;22.40;;;;;;2247981;61;20414;-65
2022/04/27 07:47:02;0.00;0.00;0.62;0.00;0.00;0.62;4.70;3.30;;;24.20;22.40;;;;;;2246952;61;20431;-63
2022/04/27 07:49:47;0.00;0.00;0.62;0.00;0.00;0.62;5.17;3.40;;;24.20;22.40;;;;;;2247923;61;20466;-61
2022/04/27 07:52:32;0.00;0.00;0.62;0.00;0.00;0.62;4.33;3.20;;;24.20;22.40;;;;;;2247751;61;21000;-67
2022/04/27 07:55:17;0.00;0.00;0.62;0.00;0.00;0.62;3.87;3.00;;;24.30;22.40;;;;;;2246773;61;20403;-63
2022/04/27 07:58:02;0.00;0.00;0.62;0.00;0.00;0.62;3.10;2.80;;;24.20;22.30;;;;;;2249908;61;20359;-55
2022/04/27 08:00:48;0.00;0.00;0.62;0.00;0.00;0.62;3.73;3.17;;;24.20;22.30;;;;;;2247528;61;20423;-59
2022/04/27 08:03:33;0.00;0.00;0.62;0.00;0.00;0.62;4.07;2.77;;;24.30;22.40;;;;;;2247165;61;20418;-58
2022/04/27 08:06:18;0.00;0.00;0.62;0.00;0.00;0.62;4.60;3.63;;;24.30;22.40;;;;;;2248000;61;20783;-52
2022/04/27 08:09:03;0.00;0.00;0.62;0.00;0.00;0.62;4.37;3.33;;;24.30;22.40;;;;;;2247265;61;20367;-55
2022/04/27 08:11:47;0.00;0.00;0.62;0.00;0.00;0.62;4.97;3.33;;;24.30;22.40;;;;;;2247406;61;20443;-63
2022/04/27 08:14:32;0.00;0.00;0.62;0.00;0.00;0.62;4.40;3.40;;;24.30;22.40;;;;;;2247883;61;20426;-59
2022/04/27 08:17:17;0.00;0.00;0.62;0.00;0.00;0.62;5.93;3.47;;;24.30;22.30;;;;;;2246621;61;20360;-56
2022/04/27 08:23:07;0.00;0.00;0.62;0.00;0.00;0.62;4.20;3.17;;;24.40;22.40;;;;;;2247425;61;20456;-55
2022/04/27 08:25:52;0.00;0.00;0.62;0.00;0.00;0.62;3.60;3.30;;;24.40;22.30;;;;;;2247128;61;20940;-55
2022/04/27 08:28:37;0.00;0.00;0.62;0.00;0.00;0.62;4.70;4.17;;;24.40;22.30;;;;;;2246988;61;20496;-62
2022/04/27 08:31:22;0.00;0.00;0.62;0.00;0.00;0.62;4.10;2.57;;;24.40;22.30;;;;;;2246046;61;20508;-57
2022/04/27 08:34:08;0.00;0.00;0.62;0.00;0.00;0.62;5.00;3.93;;;24.40;22.40;;;;;;2247389;61;20897;-57
2022/04/27 08:36:52;0.00;0.00;0.62;0.00;0.00;0.62;6.57;4.90;;;24.40;22.40;;;;;;2247477;61;20415;-55
2022/04/27 08:39:37;0.00;0.00;0.62;0.00;0.00;0.62;8.07;4.90;;;24.50;22.50;;;;;;2246868;61;20439;-57
2022/04/27 08:42:21;0.00;0.00;0.62;0.00;0.00;0.62;5.57;4.10;;;24.50;22.50;;;;;;2247487;61;20935;-56
2022/04/27 08:45:07;0.00;0.00;0.62;0.00;0.00;0.62;5.60;4.47;;;24.40;22.50;;;;;;2247675;61;20443;-58
2022/04/27 08:47:52;0.00;0.00;0.62;0.00;0.00;0.62;5.90;5.00;;;24.50;22.60;;;;;;2247442;61;20400;-55
2022/04/27 08:50:38;0.00;0.00;0.62;0.00;0.00;0.62;11.17;7.63;;;24.50;22.60;;;;;;2248246;61;20410;-57
2022/04/27 08:53:23;0.00;0.00;0.62;0.00;0.00;0.62;9.67;6.90;;;24.50;22.70;;;;;;2247092;61;20391;-55
2022/04/27 08:56:08;0.00;0.00;0.62;0.00;0.00;0.62;7.70;6.60;;;24.50;22.70;;;;;;2248698;61;20730;-54
2022/04/27 08:58:53;0.00;0.00;0.62;0.00;0.00;0.62;8.27;5.93;;;24.50;22.70;;;;;;2248523;61;20446;-57
2022/04/27 09:01:37;0.00;0.00;0.62;0.00;0.00;0.62;8.30;6.23;;;24.50;22.70;;;;;;2247166;61;20388;-58
2022/04/27 09:04:22;0.00;0.00;0.62;0.00;0.00;0.62;7.30;6.23;;;24.50;22.70;;;;;;2248574;61;20359;-54
2022/04/27 09:07:17;0.00;0.00;0.62;0.00;0.00;0.62;7.33;6.60;;;24.50;22.80;;;;;;2248504;61;20484;-55
2022/04/27 09:10:02;0.00;0.00;0.62;0.00;0.00;0.62;8.40;5.87;;;24.50;22.80;;;;;;2247920;61;20492;-54
2022/04/27 09:12:50;0.00;0.00;0.62;0.00;0.00;0.62;6.27;5.27;;;24.50;22.80;;;;;;2248248;61;20435;-57
2022/04/27 09:15:34;0.00;0.00;0.62;0.00;0.00;0.62;7.90;6.07;;;24.60;22.90;;;;;;2247903;61;20463;-55
2022/04/27 09:21:22;0.00;0.00;0.62;0.00;0.00;0.62;7.83;5.77;;;24.60;22.90;;;;;;2247809;61;20387;-54
2022/04/27 09:24:08;0.00;0.00;0.62;0.00;0.00;0.62;7.20;6.50;;;24.60;22.90;;;;;;2250182;61;20694;-67
2022/04/27 09:27:12;0.00;0.00;0.62;0.00;0.00;0.62;6.73;5.60;;;24.60;22.90;;;;;;2248361;61;20779;-57
2022/04/27 09:29:58;0.00;0.00;0.62;0.00;0.00;0.62;5.77;5.17;;;24.60;22.90;;;;;;2248188;61;20369;-55
2022/04/27 09:32:51;0.00;0.00;0.62;0.00;0.00;0.62;5.27;4.50;;;24.70;23.00;;;;;;2247689;61;20383;-55
2022/04/27 09:35:37;0.00;0.00;0.62;0.00;0.00;0.62;7.10;4.87;;;24.70;23.00;;;;;;2248454;61;20419;-57
2022/04/27 09:38:22;0.00;0.00;0.62;0.00;0.00;0.62;5.30;4.57;;;24.70;23.00;;;;;;2247411;61;20372;-56
2022/04/27 09:41:08;0.00;0.00;0.62;0.00;0.00;0.62;4.80;4.20;;;24.70;23.00;;;;;;2247943;61;20899;-53
2022/04/27 09:43:52;0.00;0.00;0.62;0.00;0.00;0.62;4.63;3.50;;;24.70;23.00;;;;;;2248370;61;20387;-53
2022/04/27 09:46:41;0.00;0.00;0.62;0.00;0.00;0.62;4.70;3.80;;;24.70;23.00;;;;;;2247929;61;20380;-62
2022/04/27 09:49:26;0.00;0.00;0.62;0.00;0.00;0.62;3.90;3.50;;;24.80;23.10;;;;;;2248277;61;20367;-56
2022/04/27 09:52:15;0.00;0.00;0.62;0.00;0.00;0.62;5.00;4.20;;;24.80;23.00;;;;;;2247703;61;20388;-56
2022/04/27 09:55:00;0.00;0.00;0.62;0.00;0.00;0.62;4.40;3.40;;;24.80;23.10;;;;;;2247974;61;20363;-62
2022/04/27 09:57:51;0.00;0.00;0.62;0.00;0.00;0.62;5.70;4.10;;;24.80;23.00;;;;;;2248367;61;20455;-56
2022/04/27 10:00:36;0.00;0.00;0.62;0.00;0.00;0.62;5.10;4.03;;;24.90;23.10;;;;;;2247003;61;20422;-59
2022/04/27 10:03:21;0.00;0.00;0.62;0.00;0.00;0.62;4.30;3.07;;;24.80;23.00;;;;;;2250671;61;20924;-56
2022/04/27 10:06:06;0.00;0.00;0.62;0.00;0.00;0.62;5.00;3.70;;;24.90;23.10;;;;;;2248408;61;20514;-57
2022/04/27 10:08:51;0.00;0.00;0.62;0.00;0.00;0.62;4.30;3.87;;;24.90;23.10;;;;;;2247318;61;20842;-57
2022/04/27 10:11:37;0.00;0.00;0.62;0.00;0.00;0.62;3.97;3.17;;;24.90;23.10;;;;;;2247979;61;20697;-57
2022/04/27 10:14:25;0.00;0.00;0.62;0.00;0.00;0.62;4.67;3.30;;;24.90;23.10;;;;;;2247909;61;20446;-55
2022/04/27 10:17:11;0.00;0.00;0.62;0.00;0.00;0.62;4.60;3.50;;;25.00;23.20;;;;;;2247816;61;20851;-55
2022/04/27 10:19:55;0.00;0.00;0.62;0.00;0.00;0.62;4.07;2.70;;;25.00;23.20;;;;;;2248335;61;20363;-56
2022/04/27 10:22:40;0.00;0.00;0.62;0.00;0.00;0.62;3.77;2.97;;;25.00;23.10;;;;;;2246963;61;20387;-56
2022/04/27 10:25:25;0.00;0.00;0.62;0.00;0.00;0.62;3.50;2.50;;;25.00;23.20;;;;;;2248560;61;20392;-57
2022/04/27 10:28:18;0.00;0.00;0.62;0.00;0.00;0.62;4.57;2.80;;;25.10;23.20;;;;;;2248059;61;20379;-57
2022/04/27 10:31:07;0.00;0.00;0.62;0.00;0.00;0.62;3.03;2.73;;;25.10;23.20;;;;;;2246921;61;20384;-58
2022/04/27 10:33:55;0.00;0.00;0.62;0.00;0.00;0.62;3.30;3.00;;;25.10;23.20;;;;;;2248123;61;20904;-55
2022/04/27 10:36:40;0.00;0.00;0.62;0.00;0.00;0.62;3.40;2.73;;;25.10;23.20;;;;;;2247821;61;20367;-54
2022/04/27 10:39:26;0.00;0.00;0.62;0.00;0.00;0.62;3.30;2.90;;;25.20;23.20;;;;;;2247956;61;20359;-63
2022/04/27 10:42:28;0.00;0.00;0.62;0.00;0.00;0.62;3.40;2.40;;;25.20;23.20;;;;;;2247973;61;20384;-61
2022/04/27 10:45:21;0.00;0.00;0.62;0.00;0.00;0.62;3.53;2.23;;;25.20;23.20;;;;;;2247364;61;20769;-57
2022/04/27 10:48:14;0.00;0.00;0.62;0.00;0.00;0.62;2.90;2.60;;;25.20;23.20;;;;;;2250466;61;20445;-56
2022/04/27 10:51:07;0.00;0.00;0.62;0.00;0.00;0.62;4.70;2.77;;;25.20;23.20;;;;;;2247835;61;20778;-57
2022/04/27 10:54:03;0.00;0.00;0.62;0.00;0.00;0.62;2.30;2.10;;;25.30;23.30;;;;;;2247899;61;20948;-58
2022/04/27 10:56:48;0.00;0.00;0.62;0.00;0.00;0.62;2.57;2.20;;;25.30;23.20;;;;;;2248180;61;20383;-57
2022/04/27 10:59:50;0.00;0.00;0.62;0.00;0.00;0.62;3.07;2.73;;;25.40;23.30;;;;;;2247354;61;20948;-58
2022/04/27 11:02:37;0.00;0.00;0.62;0.00;0.00;0.62;2.50;2.07;;;25.40;23.30;;;;;;2247831;61;20383;-54
2022/04/27 11:05:23;0.00;0.00;0.62;0.00;0.00;0.62;2.70;2.50;;;25.40;23.30;;;;;;2248229;61;20363;-58
2022/04/27 11:08:16;0.00;0.00;0.62;0.00;0.00;0.62;2.93;2.60;;;25.50;23.30;;;;;;2247611;61;20800;-58
2022/04/27 11:11:07;0.00;0.00;0.62;0.00;0.00;0.62;3.80;2.53;;;25.50;23.30;;;;;;2247621;61;20435;-54
2022/04/27 11:13:58;0.00;0.00;0.62;0.00;0.00;0.62;2.40;2.00;;;25.50;23.30;;;;;;2247062;61;20487;-58
2022/04/27 11:16:43;0.00;0.00;0.62;0.00;0.00;0.62;2.93;2.73;;;25.50;23.30;;;;;;2248283;61;20359;-55
2022/04/27 11:19:36;0.00;0.00;0.62;0.00;0.00;0.62;2.97;2.17;;;25.60;23.30;;;;;;2247962;61;20352;-57
2022/04/27 11:22:22;0.00;0.00;0.62;0.00;0.00;0.62;2.47;2.10;;;25.60;23.30;;;;;;2246772;61;20785;-55
2022/04/27 11:25:08;0.00;0.00;0.62;0.00;0.00;0.62;2.53;2.00;;;25.70;23.30;;;;;;2247944;61;20375;-55
2022/04/27 11:27:53;0.00;0.00;0.62;0.00;0.00;0.62;2.57;2.30;;;25.70;23.30;;;;;;2248249;61;20395;-57